sensor_id;sensor_type;location;lat;lon;timestamp;pressure;altitude;pressure_sealevel;temperature;humidity
39363;BME280;25088;43.238;23.110;2023-08-31T00:01:03;95847.06;;;21.52;53.97
39363;BME280;25088;43.238;23.110;2023-08-31T00:03:30;95843.09;;;21.74;52.81
39363;BME280;25088;43.238;23.110;2023-08-31T00:05:55;95850.25;;;21.75;51.73
39363;BME280;25088;43.238;23.110;2023-08-31T00:08:22;95842.00;;;22.11;51.29
39363;BME280;25088;43.238;23.110;2023-08-31T00:10:55;95848.69;;;21.98;50.20
39363;BME280;25088;43.238;23.110;2023-08-31T00:13:21;95850.75;;;22.01;50.59
39363;BME280;25088;43.238;23.110;2023-08-31T00:15:46;95850.31;;;21.99;51.84
39363;BME280;25088;43.238;23.110;2023-08-31T00:18:12;95850.84;;;21.92;50.06
39363;BME280;25088;43.238;23.110;2023-08-31T00:20:38;95857.50;;;22.12;49.06
39363;BME280;25088;43.238;23.110;2023-08-31T00:23:03;95860.22;;;22.33;48.25
39363;BME280;25088;43.238;23.110;2023-08-31T00:25:29;95853.34;;;22.55;46.61
39363;BME280;25088;43.238;23.110;2023-08-31T00:27:55;95834.97;;;23.03;44.97
39363;BME280;25088;43.238;23.110;2023-08-31T00:30:21;95837.09;;;23.50;45.13
39363;BME280;25088;43.238;23.110;2023-08-31T00:32:51;95842.41;;;23.55;46.87
39363;BME280;25088;43.238;23.110;2023-08-31T00:35:18;95844.00;;;23.12;47.17
39363;BME280;25088;43.238;23.110;2023-08-31T00:37:44;95854.78;;;23.14;47.12
39363;BME280;25088;43.238;23.110;2023-08-31T00:40:11;95855.03;;;23.09;46.91
39363;BME280;25088;43.238;23.110;2023-08-31T00:42:39;95864.66;;;22.99;45.69
39363;BME280;25088;43.238;23.110;2023-08-31T00:45:05;95845.91;;;23.24;45.38
39363;BME280;25088;43.238;23.110;2023-08-31T00:47:31;95834.38;;;23.38;45.40
39363;BME280;25088;43.238;23.110;2023-08-31T00:49:56;95850.28;;;22.97;46.98
39363;BME280;25088;43.238;23.110;2023-08-31T00:52:23;95853.41;;;23.08;46.88
39363;BME280;25088;43.238;23.110;2023-08-31T00:54:51;95850.88;;;23.03;46.68
39363;BME280;25088;43.238;23.110;2023-08-31T00:57:16;95848.56;;;22.80;47.71
39363;BME280;25088;43.238;23.110;2023-08-31T00:59:42;95845.00;;;22.55;48.83
39363;BME280;25088;43.238;23.110;2023-08-31T01:02:13;95843.47;;;22.70;46.12
39363;BME280;25088;43.238;23.110;2023-08-31T01:05:00;95841.00;;;22.81;47.89
39363;BME280;25088;43.238;23.110;2023-08-31T01:07:39;95847.41;;;22.93;47.15
39363;BME280;25088;43.238;23.110;2023-08-31T01:10:18;95846.13;;;22.91;47.76
39363;BME280;25088;43.238;23.110;2023-08-31T01:12:54;95847.53;;;22.60;47.78
39363;BME280;25088;43.238;23.110;2023-08-31T01:15:24;95847.53;;;22.73;46.97
39363;BME280;25088;43.238;23.110;2023-08-31T01:17:54;95862.47;;;22.80;47.98
39363;BME280;25088;43.238;23.110;2023-08-31T01:20:26;95856.22;;;22.71;47.08
39363;BME280;25088;43.238;23.110;2023-08-31T01:23:04;95861.22;;;22.65;47.56
39363;BME280;25088;43.238;23.110;2023-08-31T01:25:32;95861.81;;;22.59;47.85
39363;BME280;25088;43.238;23.110;2023-08-31T01:28:01;95861.81;;;22.47;47.84
39363;BME280;25088;43.238;23.110;2023-08-31T01:30:30;95869.56;;;22.41;48.73
39363;BME280;25088;43.238;23.110;2023-08-31T01:32:59;95857.63;;;22.16;48.81
39363;BME280;25088;43.238;23.110;2023-08-31T01:35:25;95850.69;;;22.22;48.75
39363;BME280;25088;43.238;23.110;2023-08-31T01:37:54;95852.91;;;22.29;48.28
39363;BME280;25088;43.238;23.110;2023-08-31T01:40:40;95863.44;;;22.35;48.45
39363;BME280;25088;43.238;23.110;2023-08-31T01:43:10;95859.03;;;22.34;48.29
39363;BME280;25088;43.238;23.110;2023-08-31T01:45:36;95856.38;;;22.38;48.22
39363;BME280;25088;43.238;23.110;2023-08-31T01:48:04;95859.16;;;22.38;48.05
39363;BME280;25088;43.238;23.110;2023-08-31T01:50:29;95864.03;;;22.41;47.96
39363;BME280;25088;43.238;23.110;2023-08-31T01:52:54;95857.28;;;22.54;48.40
39363;BME280;25088;43.238;23.110;2023-08-31T01:55:21;95870.41;;;22.54;48.12
39363;BME280;25088;43.238;23.110;2023-08-31T01:57:47;95867.22;;;22.67;47.08
39363;BME280;25088;43.238;23.110;2023-08-31T02:00:14;95873.03;;;22.62;47.04
39363;BME280;25088;43.238;23.110;2023-08-31T02:02:41;95877.19;;;22.81;47.01
39363;BME280;25088;43.238;23.110;2023-08-31T02:05:08;95874.16;;;22.86;46.95
39363;BME280;25088;43.238;23.110;2023-08-31T02:07:33;95880.00;;;22.93;48.12
39363;BME280;25088;43.238;23.110;2023-08-31T02:09:59;95864.13;;;22.69;47.85
39363;BME280;25088;43.238;23.110;2023-08-31T02:12:24;95875.94;;;22.66;48.44
39363;BME280;25088;43.238;23.110;2023-08-31T02:14:50;95874.09;;;22.58;49.33
39363;BME280;25088;43.238;23.110;2023-08-31T02:17:15;95873.28;;;22.69;48.95
39363;BME280;25088;43.238;23.110;2023-08-31T02:19:41;95868.66;;;22.49;49.23
39363;BME280;25088;43.238;23.110;2023-08-31T02:22:06;95870.97;;;22.35;49.83
39363;BME280;25088;43.238;23.110;2023-08-31T02:24:31;95859.84;;;22.35;48.81
39363;BME280;25088;43.238;23.110;2023-08-31T02:26:57;95874.56;;;22.35;48.88
39363;BME280;25088;43.238;23.110;2023-08-31T02:29:22;95874.91;;;22.58;47.95
39363;BME280;25088;43.238;23.110;2023-08-31T02:31:48;95874.44;;;22.68;48.16
39363;BME280;25088;43.238;23.110;2023-08-31T02:34:13;95871.28;;;22.82;48.50
39363;BME280;25088;43.238;23.110;2023-08-31T02:36:39;95876.28;;;22.89;48.92
39363;BME280;25088;43.238;23.110;2023-08-31T02:39:05;95877.31;;;22.84;49.94
39363;BME280;25088;43.238;23.110;2023-08-31T02:41:31;95886.25;;;22.90;49.35
39363;BME280;25088;43.238;23.110;2023-08-31T02:43:56;95893.56;;;22.94;49.83
39363;BME280;25088;43.238;23.110;2023-08-31T02:46:22;95899.94;;;22.95;50.52
39363;BME280;25088;43.238;23.110;2023-08-31T02:48:48;95904.25;;;22.92;50.16
39363;BME280;25088;43.238;23.110;2023-08-31T02:51:13;95904.81;;;22.98;51.14
39363;BME280;25088;43.238;23.110;2023-08-31T02:53:39;95899.94;;;22.83;52.20
39363;BME280;25088;43.238;23.110;2023-08-31T02:56:04;95903.28;;;22.76;49.77
39363;BME280;25088;43.238;23.110;2023-08-31T02:58:30;95903.31;;;22.39;50.88
39363;BME280;25088;43.238;23.110;2023-08-31T03:01:09;95915.75;;;22.09;53.23
39363;BME280;25088;43.238;23.110;2023-08-31T03:03:40;95917.91;;;21.91;54.98
39363;BME280;25088;43.238;23.110;2023-08-31T03:06:07;95911.97;;;21.47;56.35
39363;BME280;25088;43.238;23.110;2023-08-31T03:08:34;95919.22;;;21.19;57.00
39363;BME280;25088;43.238;23.110;2023-08-31T03:11:01;95918.94;;;21.11;55.76
39363;BME280;25088;43.238;23.110;2023-08-31T03:13:27;95919.94;;;21.07;56.85
39363;BME280;25088;43.238;23.110;2023-08-31T03:15:52;95928.81;;;21.00;57.91
39363;BME280;25088;43.238;23.110;2023-08-31T03:18:17;95931.59;;;21.00;58.36
39363;BME280;25088;43.238;23.110;2023-08-31T03:20:43;95935.59;;;20.90;58.27
39363;BME280;25088;43.238;23.110;2023-08-31T03:23:08;95932.47;;;20.92;58.70
39363;BME280;25088;43.238;23.110;2023-08-31T03:25:35;95929.28;;;20.81;59.17
39363;BME280;25088;43.238;23.110;2023-08-31T03:28:00;95930.56;;;20.84;59.40
39363;BME280;25088;43.238;23.110;2023-08-31T03:30:26;95922.44;;;20.79;58.75
39363;BME280;25088;43.238;23.110;2023-08-31T03:32:51;95922.91;;;20.81;59.34
39363;BME280;25088;43.238;23.110;2023-08-31T03:35:16;95928.31;;;20.77;59.39
39363;BME280;25088;43.238;23.110;2023-08-31T03:37:42;95936.44;;;20.53;60.64
39363;BME280;25088;43.238;23.110;2023-08-31T03:40:09;95945.47;;;20.32;60.94
39363;BME280;25088;43.238;23.110;2023-08-31T03:42:35;95945.09;;;20.43;61.29
39363;BME280;25088;43.238;23.110;2023-08-31T03:45:01;95948.38;;;20.45;61.76
39363;BME280;25088;43.238;23.110;2023-08-31T03:47:28;95952.16;;;20.49;61.52
39363;BME280;25088;43.238;23.110;2023-08-31T03:49:54;95949.94;;;20.16;62.60
39363;BME280;25088;43.238;23.110;2023-08-31T03:52:19;95945.56;;;20.06;61.65
39363;BME280;25088;43.238;23.110;2023-08-31T03:54:45;95949.97;;;20.07;62.69
39363;BME280;25088;43.238;23.110;2023-08-31T03:57:10;95952.25;;;20.14;63.70
39363;BME280;25088;43.238;23.110;2023-08-31T03:59:36;95962.19;;;20.06;63.59
39363;BME280;25088;43.238;23.110;2023-08-31T04:02:01;95956.22;;;19.96;63.70
39363;BME280;25088;43.238;23.110;2023-08-31T04:04:27;95959.97;;;19.91;63.65
39363;BME280;25088;43.238;23.110;2023-08-31T04:06:52;95960.25;;;19.98;63.57
39363;BME280;25088;43.238;23.110;2023-08-31T04:09:18;95963.50;;;20.09;61.99
39363;BME280;25088;43.238;23.110;2023-08-31T04:11:44;95950.09;;;20.20;61.24
39363;BME280;25088;43.238;23.110;2023-08-31T04:14:09;95956.38;;;20.37;61.23
39363;BME280;25088;43.238;23.110;2023-08-31T04:16:35;95955.31;;;20.21;62.41
39363;BME280;25088;43.238;23.110;2023-08-31T04:19:00;95965.75;;;20.16;62.50
39363;BME280;25088;43.238;23.110;2023-08-31T04:21:26;95975.06;;;20.11;62.99
39363;BME280;25088;43.238;23.110;2023-08-31T04:23:51;95967.69;;;20.24;63.10
39363;BME280;25088;43.238;23.110;2023-08-31T04:26:16;95974.41;;;20.14;65.11
39363;BME280;25088;43.238;23.110;2023-08-31T04:28:43;95975.25;;;19.97;65.99
39363;BME280;25088;43.238;23.110;2023-08-31T04:31:08;95988.31;;;19.88;67.24
39363;BME280;25088;43.238;23.110;2023-08-31T04:33:34;95989.16;;;19.80;66.39
39363;BME280;25088;43.238;23.110;2023-08-31T04:35:59;95991.06;;;19.97;65.50
39363;BME280;25088;43.238;23.110;2023-08-31T04:38:25;95990.72;;;20.07;64.77
39363;BME280;25088;43.238;23.110;2023-08-31T04:40:50;95993.50;;;19.98;64.48
39363;BME280;25088;43.238;23.110;2023-08-31T04:43:16;95995.91;;;20.17;63.25
39363;BME280;25088;43.238;23.110;2023-08-31T04:45:42;96006.16;;;20.34;62.96
39363;BME280;25088;43.238;23.110;2023-08-31T04:48:07;96001.16;;;20.65;62.98
39363;BME280;25088;43.238;23.110;2023-08-31T04:50:33;96007.06;;;20.55;62.09
39363;BME280;25088;43.238;23.110;2023-08-31T04:52:58;96004.94;;;20.90;60.37
39363;BME280;25088;43.238;23.110;2023-08-31T04:55:24;96002.75;;;21.05;59.31
39363;BME280;25088;43.238;23.110;2023-08-31T04:57:50;96004.56;;;21.30;57.77
39363;BME280;25088;43.238;23.110;2023-08-31T05:00:16;96013.66;;;21.39;60.70
39363;BME280;25088;43.238;23.110;2023-08-31T05:02:42;96017.78;;;21.54;62.02
39363;BME280;25088;43.238;23.110;2023-08-31T05:05:08;96016.63;;;21.55;61.06
39363;BME280;25088;43.238;23.110;2023-08-31T05:07:34;96024.88;;;21.85;59.78
39363;BME280;25088;43.238;23.110;2023-08-31T05:09:59;96019.38;;;21.97;59.55
39363;BME280;25088;43.238;23.110;2023-08-31T05:12:25;96017.94;;;22.12;59.82
39363;BME280;25088;43.238;23.110;2023-08-31T05:14:50;96014.50;;;22.27;58.76
39363;BME280;25088;43.238;23.110;2023-08-31T05:17:16;96019.63;;;22.37;60.00
39363;BME280;25088;43.238;23.110;2023-08-31T05:19:41;96015.47;;;22.31;60.39
39363;BME280;25088;43.238;23.110;2023-08-31T05:22:07;96022.41;;;22.04;59.08
39363;BME280;25088;43.238;23.110;2023-08-31T05:24:32;96035.50;;;22.04;60.39
39363;BME280;25088;43.238;23.110;2023-08-31T05:26:57;96040.38;;;22.07;62.35
39363;BME280;25088;43.238;23.110;2023-08-31T05:29:23;96036.16;;;22.22;62.26
39363;BME280;25088;43.238;23.110;2023-08-31T05:31:48;96034.34;;;22.26;58.55
39363;BME280;25088;43.238;23.110;2023-08-31T05:34:17;96042.59;;;22.47;57.40
39363;BME280;25088;43.238;23.110;2023-08-31T05:36:45;96049.38;;;22.70;55.91
39363;BME280;25088;43.238;23.110;2023-08-31T05:39:10;96046.09;;;22.89;54.17
39363;BME280;25088;43.238;23.110;2023-08-31T05:41:35;96037.41;;;23.03;53.90
39363;BME280;25088;43.238;23.110;2023-08-31T05:44:01;96045.84;;;23.06;55.10
39363;BME280;25088;43.238;23.110;2023-08-31T05:46:27;96038.66;;;23.17;55.00
39363;BME280;25088;43.238;23.110;2023-08-31T05:48:52;96047.00;;;23.30;55.85
39363;BME280;25088;43.238;23.110;2023-08-31T05:51:18;96051.84;;;23.45;54.93
39363;BME280;25088;43.238;23.110;2023-08-31T05:53:43;96035.59;;;23.47;55.26
39363;BME280;25088;43.238;23.110;2023-08-31T05:56:09;96047.56;;;23.72;53.91
39363;BME280;25088;43.238;23.110;2023-08-31T05:58:35;96044.47;;;23.89;53.14
39363;BME280;25088;43.238;23.110;2023-08-31T06:01:01;96049.41;;;24.08;53.13
39363;BME280;25088;43.238;23.110;2023-08-31T06:03:27;96058.00;;;24.43;53.61
39363;BME280;25088;43.238;23.110;2023-08-31T06:05:54;96048.69;;;24.67;52.56
39363;BME280;25088;43.238;23.110;2023-08-31T06:08:20;96055.88;;;24.68;52.75
39363;BME280;25088;43.238;23.110;2023-08-31T06:10:45;96058.91;;;25.07;52.23
39363;BME280;25088;43.238;23.110;2023-08-31T06:13:11;96056.22;;;25.46;51.24
39363;BME280;25088;43.238;23.110;2023-08-31T06:15:36;96062.97;;;25.76;49.08
39363;BME280;25088;43.238;23.110;2023-08-31T06:18:02;96055.34;;;26.12;45.94
39363;BME280;25088;43.238;23.110;2023-08-31T06:20:28;96053.59;;;26.43;45.80
39363;BME280;25088;43.238;23.110;2023-08-31T06:22:53;96049.75;;;26.74;45.92
39363;BME280;25088;43.238;23.110;2023-08-31T06:25:18;96051.00;;;26.99;43.87
39363;BME280;25088;43.238;23.110;2023-08-31T06:27:44;96056.25;;;27.24;42.47
39363;BME280;25088;43.238;23.110;2023-08-31T06:30:10;96056.88;;;27.37;41.19
39363;BME280;25088;43.238;23.110;2023-08-31T06:32:44;96060.56;;;27.41;39.86
39363;BME280;25088;43.238;23.110;2023-08-31T06:35:11;96075.78;;;27.70;40.11
39363;BME280;25088;43.238;23.110;2023-08-31T06:37:37;96073.72;;;27.90;40.29
39363;BME280;25088;43.238;23.110;2023-08-31T06:40:04;96074.09;;;28.15;39.79
39363;BME280;25088;43.238;23.110;2023-08-31T06:42:30;96086.53;;;28.17;39.37
39363;BME280;25088;43.238;23.110;2023-08-31T06:44:55;96081.25;;;28.12;39.24
39363;BME280;25088;43.238;23.110;2023-08-31T06:47:22;96084.88;;;28.43;38.69
39363;BME280;25088;43.238;23.110;2023-08-31T06:49:48;96088.81;;;28.72;37.44
39363;BME280;25088;43.238;23.110;2023-08-31T06:52:13;96089.03;;;28.93;36.79
39363;BME280;25088;43.238;23.110;2023-08-31T06:54:39;96092.47;;;29.09;36.15
39363;BME280;25088;43.238;23.110;2023-08-31T06:57:04;96076.56;;;29.28;37.18
39363;BME280;25088;43.238;23.110;2023-08-31T06:59:30;96087.16;;;29.49;36.77
39363;BME280;25088;43.238;23.110;2023-08-31T07:01:55;96093.81;;;29.71;35.57
39363;BME280;25088;43.238;23.110;2023-08-31T07:04:20;96100.47;;;29.52;35.45
39363;BME280;25088;43.238;23.110;2023-08-31T07:06:46;96100.13;;;29.57;35.31
39363;BME280;25088;43.238;23.110;2023-08-31T07:09:11;96103.50;;;29.77;35.21
39363;BME280;25088;43.238;23.110;2023-08-31T07:11:37;96103.94;;;29.79;35.50
39363;BME280;25088;43.238;23.110;2023-08-31T07:14:03;96101.81;;;29.69;35.32
39363;BME280;25088;43.238;23.110;2023-08-31T07:16:28;96100.31;;;29.82;34.91
39363;BME280;25088;43.238;23.110;2023-08-31T07:18:53;96101.31;;;30.11;35.28
39363;BME280;25088;43.238;23.110;2023-08-31T07:21:19;96105.50;;;30.35;34.88
39363;BME280;25088;43.238;23.110;2023-08-31T07:23:45;96104.38;;;30.57;35.83
39363;BME280;25088;43.238;23.110;2023-08-31T07:26:10;96102.47;;;30.86;34.36
39363;BME280;25088;43.238;23.110;2023-08-31T07:28:35;96112.22;;;31.14;33.44
39363;BME280;25088;43.238;23.110;2023-08-31T07:31:05;96103.34;;;31.23;33.55
39363;BME280;25088;43.238;23.110;2023-08-31T07:33:32;96106.13;;;30.83;34.32
39363;BME280;25088;43.238;23.110;2023-08-31T07:35:58;96106.97;;;31.05;34.00
39363;BME280;25088;43.238;23.110;2023-08-31T07:38:24;96112.63;;;31.16;33.68
39363;BME280;25088;43.238;23.110;2023-08-31T07:40:51;96110.63;;;31.13;33.51
39363;BME280;25088;43.238;23.110;2023-08-31T07:43:17;96109.84;;;31.52;34.17
39363;BME280;25088;43.238;23.110;2023-08-31T07:45:42;96116.72;;;31.61;33.23
39363;BME280;25088;43.238;23.110;2023-08-31T07:48:08;96103.44;;;31.83;33.24
39363;BME280;25088;43.238;23.110;2023-08-31T07:50:33;96101.78;;;32.04;32.82
39363;BME280;25088;43.238;23.110;2023-08-31T07:52:59;96108.94;;;32.55;32.77
39363;BME280;25088;43.238;23.110;2023-08-31T07:55:25;96112.06;;;32.75;32.22
39363;BME280;25088;43.238;23.110;2023-08-31T07:57:50;96107.13;;;32.97;31.78
39363;BME280;25088;43.238;23.110;2023-08-31T08:00:16;96117.38;;;32.62;32.13
39363;BME280;25088;43.238;23.110;2023-08-31T08:02:42;96123.13;;;32.30;32.53
39363;BME280;25088;43.238;23.110;2023-08-31T08:05:07;96123.59;;;31.89;32.89
39363;BME280;25088;43.238;23.110;2023-08-31T08:07:33;96121.56;;;31.72;32.63
39363;BME280;25088;43.238;23.110;2023-08-31T08:09:58;96135.66;;;31.39;32.34
39363;BME280;25088;43.238;23.110;2023-08-31T08:12:25;96125.97;;;31.37;33.39
39363;BME280;25088;43.238;23.110;2023-08-31T08:14:50;96129.13;;;31.18;34.56
39363;BME280;25088;43.238;23.110;2023-08-31T08:17:16;96131.97;;;31.14;33.89
39363;BME280;25088;43.238;23.110;2023-08-31T08:19:41;96131.47;;;30.83;34.10
39363;BME280;25088;43.238;23.110;2023-08-31T08:22:07;96135.06;;;30.77;33.88
39363;BME280;25088;43.238;23.110;2023-08-31T08:24:32;96131.78;;;30.64;34.78
39363;BME280;25088;43.238;23.110;2023-08-31T08:26:58;96128.81;;;30.35;35.24
39363;BME280;25088;43.238;23.110;2023-08-31T08:29:24;96129.63;;;30.36;34.63
39363;BME280;25088;43.238;23.110;2023-08-31T08:31:50;96136.97;;;30.55;35.01
39363;BME280;25088;43.238;23.110;2023-08-31T08:34:15;96136.59;;;30.67;35.53
39363;BME280;25088;43.238;23.110;2023-08-31T08:36:41;96134.06;;;30.33;36.52
39363;BME280;25088;43.238;23.110;2023-08-31T08:39:06;96137.00;;;30.58;36.70
39363;BME280;25088;43.238;23.110;2023-08-31T08:41:33;96140.22;;;30.60;35.41
39363;BME280;25088;43.238;23.110;2023-08-31T08:44:03;96126.63;;;30.80;35.19
39363;BME280;25088;43.238;23.110;2023-08-31T08:46:30;96130.41;;;31.31;35.19
39363;BME280;25088;43.238;23.110;2023-08-31T08:48:58;96130.03;;;31.79;34.31
39363;BME280;25088;43.238;23.110;2023-08-31T08:51:24;96121.16;;;31.87;33.11
39363;BME280;25088;43.238;23.110;2023-08-31T08:53:50;96127.63;;;31.84;33.18
39363;BME280;25088;43.238;23.110;2023-08-31T08:56:17;96127.19;;;31.97;33.43
39363;BME280;25088;43.238;23.110;2023-08-31T08:58:42;96128.84;;;31.90;33.08
39363;BME280;25088;43.238;23.110;2023-08-31T09:01:08;96134.47;;;31.65;33.05
39363;BME280;25088;43.238;23.110;2023-08-31T09:03:34;96134.44;;;31.73;33.16
39363;BME280;25088;43.238;23.110;2023-08-31T09:06:00;96127.59;;;31.56;33.42
39363;BME280;25088;43.238;23.110;2023-08-31T09:08:33;96134.47;;;31.55;34.02
39363;BME280;25088;43.238;23.110;2023-08-31T09:10:59;96138.81;;;31.20;33.98
39363;BME280;25088;43.238;23.110;2023-08-31T09:13:28;96136.81;;;31.21;35.09
39363;BME280;25088;43.238;23.110;2023-08-31T09:15:55;96137.59;;;31.10;34.44
39363;BME280;25088;43.238;23.110;2023-08-31T09:20:51;96129.94;;;31.22;35.14
39363;BME280;25088;43.238;23.110;2023-08-31T09:23:18;96131.63;;;31.30;35.43
39363;BME280;25088;43.238;23.110;2023-08-31T09:25:47;96134.78;;;31.14;35.97
39363;BME280;25088;43.238;23.110;2023-08-31T09:28:15;96138.00;;;31.20;35.98
39363;BME280;25088;43.238;23.110;2023-08-31T09:30:42;96134.03;;;31.46;36.06
39363;BME280;25088;43.238;23.110;2023-08-31T09:33:14;96136.09;;;31.99;34.52
39363;BME280;25088;43.238;23.110;2023-08-31T09:35:49;96136.44;;;32.29;35.26
39363;BME280;25088;43.238;23.110;2023-08-31T09:38:16;96131.50;;;32.69;33.60
39363;BME280;25088;43.238;23.110;2023-08-31T09:40:42;96131.88;;;32.75;34.17
39363;BME280;25088;43.238;23.110;2023-08-31T09:43:07;96138.69;;;32.81;33.32
39363;BME280;25088;43.238;23.110;2023-08-31T09:45:34;96132.94;;;33.06;33.88
39363;BME280;25088;43.238;23.110;2023-08-31T09:48:01;96137.94;;;32.73;33.27
39363;BME280;25088;43.238;23.110;2023-08-31T09:50:32;96130.66;;;32.72;33.44
39363;BME280;25088;43.238;23.110;2023-08-31T09:53:04;96131.63;;;33.28;33.55
39363;BME280;25088;43.238;23.110;2023-08-31T09:55:34;96137.81;;;33.68;32.68
39363;BME280;25088;43.238;23.110;2023-08-31T09:58:02;96132.50;;;34.22;32.13
39363;BME280;25088;43.238;23.110;2023-08-31T10:00:32;96142.25;;;34.59;31.89
39363;BME280;25088;43.238;23.110;2023-08-31T10:03:00;96131.19;;;34.71;31.05
39363;BME280;25088;43.238;23.110;2023-08-31T10:05:26;96130.50;;;34.91;31.46
39363;BME280;25088;43.238;23.110;2023-08-31T10:07:52;96133.47;;;34.80;30.66
39363;BME280;25088;43.238;23.110;2023-08-31T10:10:18;96131.44;;;34.81;30.17
39363;BME280;25088;43.238;23.110;2023-08-31T10:12:45;96142.25;;;34.93;30.17
39363;BME280;25088;43.238;23.110;2023-08-31T10:15:11;96140.13;;;35.01;30.50
39363;BME280;25088;43.238;23.110;2023-08-31T10:17:41;96139.63;;;34.75;30.44
39363;BME280;25088;43.238;23.110;2023-08-31T10:20:09;96145.66;;;34.47;31.60
39363;BME280;25088;43.238;23.110;2023-08-31T10:22:36;96143.63;;;34.02;31.41
39363;BME280;25088;43.238;23.110;2023-08-31T10:25:04;96137.78;;;33.72;32.06
39363;BME280;25088;43.238;23.110;2023-08-31T10:27:41;96144.16;;;33.27;31.98
39363;BME280;25088;43.238;23.110;2023-08-31T10:32:39;96143.59;;;32.70;33.43
39363;BME280;25088;43.238;23.110;2023-08-31T10:35:05;96154.19;;;32.37;33.80
39363;BME280;25088;43.238;23.110;2023-08-31T10:37:31;96155.41;;;32.25;33.51
39363;BME280;25088;43.238;23.110;2023-08-31T10:40:11;96154.09;;;32.69;34.27
39363;BME280;25088;43.238;23.110;2023-08-31T10:42:48;96144.19;;;33.20;33.51
39363;BME280;25088;43.238;23.110;2023-08-31T10:45:43;96152.63;;;33.86;32.24
39363;BME280;25088;43.238;23.110;2023-08-31T10:48:09;96139.69;;;33.85;32.18
39363;BME280;25088;43.238;23.110;2023-08-31T10:50:41;96154.91;;;33.57;31.91
39363;BME280;25088;43.238;23.110;2023-08-31T10:53:10;96158.69;;;33.88;32.51
39363;BME280;25088;43.238;23.110;2023-08-31T10:55:52;96153.25;;;34.12;32.16
39363;BME280;25088;43.238;23.110;2023-08-31T10:58:18;96161.31;;;34.17;31.60
39363;BME280;25088;43.238;23.110;2023-08-31T11:00:51;96158.25;;;33.97;32.20
39363;BME280;25088;43.238;23.110;2023-08-31T11:03:17;96161.41;;;33.51;32.10
39363;BME280;25088;43.238;23.110;2023-08-31T11:06:01;96161.47;;;33.43;32.68
39363;BME280;25088;43.238;23.110;2023-08-31T11:08:26;96159.63;;;33.01;33.30
39363;BME280;25088;43.238;23.110;2023-08-31T11:10:52;96152.44;;;32.82;32.71
39363;BME280;25088;43.238;23.110;2023-08-31T11:13:22;96163.09;;;32.42;32.82
39363;BME280;25088;43.238;23.110;2023-08-31T11:15:48;96162.28;;;32.17;33.76
39363;BME280;25088;43.238;23.110;2023-08-31T11:18:14;96152.59;;;32.22;33.53
39363;BME280;25088;43.238;23.110;2023-08-31T11:20:43;96148.91;;;32.53;33.34
39363;BME280;25088;43.238;23.110;2023-08-31T11:23:09;96153.69;;;32.74;33.64
39363;BME280;25088;43.238;23.110;2023-08-31T11:25:35;96147.66;;;32.68;33.50
39363;BME280;25088;43.238;23.110;2023-08-31T11:28:06;96150.84;;;32.78;34.37
39363;BME280;25088;43.238;23.110;2023-08-31T11:30:37;96129.72;;;33.07;33.07
39363;BME280;25088;43.238;23.110;2023-08-31T11:33:06;96149.69;;;33.41;31.96
39363;BME280;25088;43.238;23.110;2023-08-31T11:35:35;96150.16;;;33.95;31.79
39363;BME280;25088;43.238;23.110;2023-08-31T11:38:01;96147.09;;;33.72;33.19
39363;BME280;25088;43.238;23.110;2023-08-31T11:40:28;96142.28;;;33.65;31.58
39363;BME280;25088;43.238;23.110;2023-08-31T11:42:54;96133.69;;;33.76;31.59
39363;BME280;25088;43.238;23.110;2023-08-31T11:45:20;96138.91;;;34.30;31.96
39363;BME280;25088;43.238;23.110;2023-08-31T11:47:48;96137.25;;;35.04;30.96
39363;BME280;25088;43.238;23.110;2023-08-31T11:50:14;96132.94;;;34.92;30.75
39363;BME280;25088;43.238;23.110;2023-08-31T11:52:42;96136.59;;;34.59;31.17
39363;BME280;25088;43.238;23.110;2023-08-31T11:55:15;96136.94;;;34.61;30.98
39363;BME280;25088;43.238;23.110;2023-08-31T11:57:51;96138.91;;;34.67;31.90
39363;BME280;25088;43.238;23.110;2023-08-31T12:00:17;96126.50;;;34.54;31.43
39363;BME280;25088;43.238;23.110;2023-08-31T12:02:44;96128.44;;;33.78;32.32
39363;BME280;25088;43.238;23.110;2023-08-31T12:05:11;96127.91;;;33.42;32.31
39363;BME280;25088;43.238;23.110;2023-08-31T12:07:43;96131.25;;;33.23;32.54
39363;BME280;25088;43.238;23.110;2023-08-31T12:10:09;96138.69;;;32.88;32.71
39363;BME280;25088;43.238;23.110;2023-08-31T12:12:35;96139.13;;;32.72;33.54
39363;BME280;25088;43.238;23.110;2023-08-31T12:15:02;96145.25;;;32.56;33.75
39363;BME280;25088;43.238;23.110;2023-08-31T12:17:29;96148.50;;;32.51;33.27
39363;BME280;25088;43.238;23.110;2023-08-31T12:20:05;96143.69;;;32.41;34.30
39363;BME280;25088;43.238;23.110;2023-08-31T12:22:31;96140.47;;;32.21;34.06
39363;BME280;25088;43.238;23.110;2023-08-31T12:24:56;96138.88;;;32.20;35.01
39363;BME280;25088;43.238;23.110;2023-08-31T12:27:22;96146.56;;;32.02;34.67
39363;BME280;25088;43.238;23.110;2023-08-31T12:29:47;96129.56;;;32.27;34.77
39363;BME280;25088;43.238;23.110;2023-08-31T12:32:13;96143.28;;;32.50;34.38
39363;BME280;25088;43.238;23.110;2023-08-31T12:34:39;96145.28;;;32.46;34.35
39363;BME280;25088;43.238;23.110;2023-08-31T12:37:04;96149.00;;;31.96;34.64
39363;BME280;25088;43.238;23.110;2023-08-31T12:39:30;96151.81;;;31.75;35.64
39363;BME280;25088;43.238;23.110;2023-08-31T12:41:56;96138.91;;;31.91;35.07
39363;BME280;25088;43.238;23.110;2023-08-31T12:44:21;96151.00;;;31.63;34.81
39363;BME280;25088;43.238;23.110;2023-08-31T12:46:47;96146.97;;;31.43;34.91
39363;BME280;25088;43.238;23.110;2023-08-31T12:49:12;96148.56;;;31.44;35.48
39363;BME280;25088;43.238;23.110;2023-08-31T12:51:38;96158.22;;;31.36;35.88
39363;BME280;25088;43.238;23.110;2023-08-31T12:54:03;96152.47;;;31.07;35.51